Time;durP1;ratioP1;P1;durP2;ratioP2;P2;SDS_P1;SDS_P2;PMS_P1;PMS_P2;Temp;Humidity;BMP_temperature;BMP_pressure;BME280_temperature;BME280_humidity;BME280_pressure;Samples;Min_cycle;Max_cycle;Signal;HPM_P1;HPM_P2
2022/03/24 00:04:05;;;;;;;43.70;24.23;;;10.90;69.80;;;;;;10293157;28;20232;-83
2022/03/24 00:09:07;;;;;;;39.27;23.63;;;9.20;70.90;;;;;;10276098;28;20644;-83
2022/03/24 00:14:10;;;;;;;29.93;17.17;;;9.20;73.20;;;;;;10306461;28;20326;-83
2022/03/24 00:19:12;;;;;;;26.00;16.00;;;9.30;75.50;;;;;;10295318;28;20261;-83
2022/03/24 00:24:15;;;;;;;19.80;12.80;;;10.00;75.50;;;;;;10292304;28;20704;-83
2022/03/24 00:29:17;;;;;;;21.70;14.73;;;10.90;73.30;;;;;;10293270;28;20300;-83
2022/03/24 00:34:20;;;;;;;23.97;15.70;;;11.30;70.90;;;;;;10293724;28;20303;-83
2022/03/24 00:39:22;;;;;;;37.37;22.97;;;11.40;70.40;;;;;;10292457;28;20318;-83
2022/03/24 00:44:24;;;;;;;24.70;15.13;;;11.40;69.70;;;;;;10307447;28;20229;-83
2022/03/24 00:49:27;;;;;;;29.13;18.20;;;11.70;70.00;;;;;;10312989;28;20690;-83
2022/03/24 00:54:29;;;;;;;25.97;16.27;;;11.60;69.20;;;;;;10312768;28;20250;-83
2022/03/24 00:59:32;;;;;;;27.00;17.10;;;11.30;70.70;;;;;;10276280;28;20276;-83
2022/03/24 01:04:34;;;;;;;26.40;15.50;;;10.80;70.90;;;;;;10273336;28;20626;-83
2022/03/24 01:09:37;;;;;;;24.80;15.60;;;10.80;72.20;;;;;;10274107;28;20751;-83
2022/03/24 01:14:40;;;;;;;37.07;21.57;;;11.00;71.50;;;;;;10273442;28;20288;-83
2022/03/24 01:19:44;;;;;;;30.07;19.07;;;10.10;71.70;;;;;;10273151;28;20758;-83
2022/03/24 01:24:47;;;;;;;19.17;13.13;;;10.10;73.10;;;;;;10326733;28;20624;-83
2022/03/24 01:29:50;;;;;;;19.03;12.43;;;10.00;75.20;;;;;;10328818;28;20689;-83
2022/03/24 01:34:53;;;;;;;39.40;23.00;;;10.40;73.60;;;;;;10320411;28;20329;-83
2022/03/24 01:39:56;;;;;;;29.17;17.27;;;9.70;72.70;;;;;;10307278;28;20264;-83
2022/03/24 01:44:59;;;;;;;21.90;14.63;;;10.30;73.10;;;;;;10312287;28;20212;-83
2022/03/24 01:50:06;;;;;;;35.93;22.07;;;9.90;73.00;;;;;;10304280;28;20229;-83
2022/03/24 01:55:08;;;;;;;26.80;16.40;;;10.30;72.90;;;;;;10307886;28;20252;-83
2022/03/24 02:00:13;;;;;;;18.00;11.80;;;9.90;74.50;;;;;;10311796;28;20210;-83
2022/03/24 02:05:16;;;;;;;36.83;21.67;;;10.50;73.40;;;;;;10311533;28;20306;-82
2022/03/24 02:10:19;;;;;;;28.83;18.07;;;10.40;71.00;;;;;;10309343;28;20767;-83
2022/03/24 02:15:27;;;;;;;27.83;17.70;;;10.60;71.40;;;;;;10294376;28;20260;-83
2022/03/24 02:20:33;;;;;;;33.27;20.93;;;10.70;71.70;;;;;;10310533;28;20208;-82
2022/03/24 02:25:38;;;;;;;27.53;17.00;;;11.10;70.10;;;;;;10300383;28;20305;-83
2022/03/24 02:30:40;;;;;;;31.07;20.20;;;10.80;70.90;;;;;;10287737;28;20686;-83
2022/03/24 02:35:44;;;;;;;23.20;14.73;;;11.10;69.20;;;;;;10323048;28;20996;-83
2022/03/24 02:40:49;;;;;;;23.37;13.93;;;11.20;70.20;;;;;;10280290;28;20354;-83
2022/03/24 02:45:53;;;;;;;28.60;17.43;;;11.60;68.80;;;;;;10270261;28;20209;-83
2022/03/24 02:50:58;;;;;;;20.43;13.50;;;11.50;67.30;;;;;;10286987;28;20241;-83
2022/03/24 02:56:01;;;;;;;19.37;12.73;;;11.40;69.10;;;;;;10269370;28;20260;-83
2022/03/24 03:01:04;;;;;;;16.20;11.87;;;11.50;69.00;;;;;;10300781;28;20198;-83
2022/03/24 03:06:06;;;;;;;23.67;15.67;;;11.50;69.20;;;;;;10318740;28;20209;-83
2022/03/24 03:11:09;;;;;;;27.60;17.33;;;11.50;68.40;;;;;;10309837;28;20237;-83
2022/03/24 03:16:12;;;;;;;21.07;13.63;;;11.20;68.20;;;;;;10299488;28;20665;-83
2022/03/24 03:21:16;;;;;;;18.53;13.27;;;11.40;69.30;;;;;;10320209;28;20232;-83
2022/03/24 03:26:19;;;;;;;24.70;15.23;;;11.60;67.70;;;;;;10314053;28;20256;-83
2022/03/24 03:31:22;;;;;;;31.10;19.37;;;11.20;68.80;;;;;;10334530;28;20228;-83
2022/03/24 03:36:25;;;;;;;23.97;16.00;;;10.30;69.60;;;;;;10334329;28;20256;-83
2022/03/24 03:41:28;;;;;;;22.30;15.67;;;10.60;70.70;;;;;;10333340;28;20257;-83
2022/03/24 03:46:31;;;;;;;19.23;13.43;;;10.60;70.30;;;;;;10296731;28;20230;-83
2022/03/24 03:51:35;;;;;;;17.40;11.87;;;10.80;70.40;;;;;;10321935;28;20283;-83
2022/03/24 03:56:38;;;;;;;18.47;13.03;;;11.00;69.60;;;;;;10309960;28;20780;-83
2022/03/24 04:01:40;;;;;;;25.73;15.67;;;11.30;68.90;;;;;;10331129;28;20256;-83
2022/03/24 04:06:43;;;;;;;16.13;10.90;;;10.90;68.50;;;;;;10313169;28;20632;-83
2022/03/24 04:11:46;;;;;;;37.07;22.70;;;11.00;70.20;;;;;;10275015;28;20307;-83
2022/03/24 04:16:49;;;;;;;16.00;11.20;;;10.30;68.20;;;;;;10292510;28;20644;-83
2022/03/24 04:21:51;;;;;;;25.13;15.03;;;10.60;71.50;;;;;;10292227;28;20970;-83
2022/03/24 04:26:56;;;;;;;30.77;18.53;;;10.90;69.20;;;;;;10293594;28;20658;-83
2022/03/24 04:31:58;;;;;;;14.33;11.57;;;11.50;67.90;;;;;;10274509;28;20229;-83
2022/03/24 04:37:02;;;;;;;36.13;21.13;;;11.60;68.40;;;;;;10291070;28;20304;-83
2022/03/24 04:42:06;;;;;;;15.07;10.87;;;11.50;66.20;;;;;;10300589;28;20279;-83
2022/03/24 04:47:09;;;;;;;15.03;11.23;;;11.60;68.00;;;;;;10292311;28;20237;-84
2022/03/24 04:52:12;;;;;;;16.63;11.43;;;11.50;68.00;;;;;;10334171;28;20228;-84
2022/03/24 04:57:14;;;;;;;17.90;11.73;;;11.70;67.00;;;;;;10353256;28;20690;-84
2022/03/24 05:02:18;;;;;;;40.43;23.73;;;12.10;66.30;;;;;;10366692;28;20212;-84
2022/03/24 05:07:21;;;;;;;19.90;13.13;;;11.90;63.60;;;;;;10364185;28;20616;-85
2022/03/24 05:12:23;;;;;;;23.33;14.37;;;11.50;67.90;;;;;;10367459;28;20275;-84
2022/03/24 05:17:26;;;;;;;22.83;13.97;;;12.10;66.10;;;;;;10363059;28;20610;-84
2022/03/24 05:22:28;;;;;;;23.70;15.40;;;12.10;64.70;;;;;;10352461;28;20239;-84
2022/03/24 05:27:32;;;;;;;22.57;13.87;;;11.20;67.30;;;;;;10351500;28;20715;-84
2022/03/24 05:32:39;;;;;;;17.20;11.73;;;11.60;66.50;;;;;;10335097;28;20230;-84
2022/03/24 05:37:41;;;;;;;25.20;14.77;;;11.80;66.60;;;;;;10279037;28;20311;-84
2022/03/24 05:42:44;;;;;;;15.93;10.63;;;11.50;65.60;;;;;;10312543;28;20432;-84
2022/03/24 05:47:47;;;;;;;19.40;12.30;;;11.50;67.30;;;;;;10291670;28;20817;-83
2022/03/24 05:52:59;;;;;;;20.97;13.57;;;11.50;67.40;;;;;;10288845;28;20232;-83
2022/03/24 05:58:01;;;;;;;18.20;11.90;;;11.20;67.80;;;;;;10310404;28;20253;-83
2022/03/24 06:03:06;;;;;;;13.80;10.97;;;11.50;67.30;;;;;;10316146;28;20307;-83
2022/03/24 06:08:09;;;;;;;18.77;11.90;;;11.60;66.80;;;;;;10311280;28;20299;-83
2022/03/24 06:13:11;;;;;;;27.97;16.23;;;11.90;66.00;;;;;;10326847;28;20234;-83
2022/03/24 06:18:14;;;;;;;17.73;13.27;;;12.00;65.90;;;;;;10310966;28;20700;-83
2022/03/24 06:23:17;;;;;;;29.33;16.63;;;11.90;65.80;;;;;;10310144;28;20232;-83
2022/03/24 06:28:19;;;;;;;60.00;35.40;;;11.90;65.50;;;;;;10304482;28;20264;-87
2022/03/24 06:33:22;;;;;;;56.47;33.47;;;11.90;60.50;;;;;;10294766;28;20230;-83
2022/03/24 06:38:24;;;;;;;51.00;31.23;;;12.60;58.60;;;;;;10305883;28;20314;-83
2022/03/24 06:43:27;;;;;;;48.43;32.27;;;12.90;58.50;;;;;;10310756;28;20275;-84
2022/03/24 06:48:29;;;;;;;51.40;33.03;;;12.90;58.70;;;;;;10325308;28;20666;-84
2022/03/24 06:53:32;;;;;;;47.23;27.17;;;12.50;59.40;;;;;;10327470;28;20290;-84
2022/03/24 06:58:35;;;;;;;46.17;27.40;;;13.10;58.40;;;;;;10329188;28;20283;-83
2022/03/24 07:03:38;;;;;;;49.77;31.20;;;13.00;58.60;;;;;;10331606;28;20650;-84
2022/03/24 07:08:40;;;;;;;56.93;33.50;;;12.50;59.50;;;;;;10365301;28;20290;-83
2022/03/24 07:13:43;;;;;;;50.07;30.33;;;13.30;57.20;;;;;;10357465;28;20227;-83
2022/03/24 07:18:45;;;;;;;49.07;28.93;;;12.90;58.10;;;;;;10349382;28;20700;-83
2022/03/24 07:23:48;;;;;;;44.87;25.27;;;13.30;57.40;;;;;;10372086;28;20288;-83
2022/03/24 07:28:50;;;;;;;34.77;22.90;;;12.30;60.50;;;;;;10374612;28;20274;-82
2022/03/24 07:33:55;;;;;;;44.43;27.73;;;12.30;60.90;;;;;;10374618;28;20232;-82
2022/03/24 07:38:59;;;;;;;28.57;20.63;;;12.60;59.30;;;;;;10343391;28;20298;-82
2022/03/24 07:44:07;;;;;;;27.63;19.47;;;12.90;60.30;;;;;;10348089;28;20271;-82
2022/03/24 07:49:12;;;;;;;27.53;19.10;;;13.30;59.20;;;;;;10356582;28;20276;-82
2022/03/24 07:54:15;;;;;;;47.80;30.20;;;13.10;59.60;;;;;;10368196;28;20314;-82
2022/03/24 07:59:18;;;;;;;31.90;20.87;;;13.40;55.80;;;;;;10331847;28;20282;-82
2022/03/24 08:04:20;;;;;;;53.60;32.23;;;13.10;58.40;;;;;;10283687;28;20283;-81
2022/03/24 08:09:24;;;;;;;51.83;30.47;;;12.90;54.80;;;;;;10333839;28;20263;-81
2022/03/24 08:14:27;;;;;;;25.30;18.03;;;13.30;57.20;;;;;;10325259;28;20233;-81
2022/03/24 08:19:29;;;;;;;40.23;24.10;;;13.70;58.70;;;;;;10280155;28;20306;-82
2022/03/24 08:24:32;;;;;;;33.67;23.17;;;13.90;54.70;;;;;;10293539;28;20631;-82
2022/03/24 08:29:34;;;;;;;23.63;17.83;;;13.80;57.40;;;;;;10292256;28;20785;-81
2022/03/24 08:34:37;;;;;;;25.57;16.73;;;14.30;57.10;;;;;;10296121;28;20693;-81
2022/03/24 08:39:39;;;;;;;25.90;16.70;;;14.40;55.90;;;;;;10332805;28;20272;-82
2022/03/24 08:44:41;;;;;;;31.20;19.53;;;14.60;56.40;;;;;;10354141;28;20235;-82
2022/03/24 08:49:44;;;;;;;48.77;23.97;;;14.70;56.60;;;;;;10329308;28;20614;-81
2022/03/24 08:54:46;;;;;;;22.47;15.47;;;13.40;50.40;;;;;;10293354;28;20295;-81
2022/03/24 08:59:56;;;;;;;38.20;25.20;;;12.80;56.90;;;;;;10281679;28;20264;-81
2022/03/24 09:05:00;;;;;;;22.30;15.40;;;14.00;50.50;;;;;;10321702;28;20311;-81
2022/03/24 09:10:10;;;;;;;23.80;14.93;;;13.60;58.90;;;;;;10308341;28;20237;-81
2022/03/24 09:15:15;;;;;;;33.10;21.97;;;13.90;58.20;;;;;;10274780;28;20649;-81
2022/03/24 09:20:19;;;;;;;27.47;17.40;;;14.50;49.90;;;;;;10319752;28;20285;-81
2022/03/24 09:25:21;;;;;;;35.33;19.43;;;14.00;53.50;;;;;;10315269;28;20250;-81
2022/03/24 09:30:24;;;;;;;33.07;19.60;;;13.70;47.40;;;;;;10327787;28;20241;-81
2022/03/24 09:35:26;;;;;;;28.63;18.80;;;12.80;50.10;;;;;;10280126;28;20269;-81
2022/03/24 09:40:30;;;;;;;26.37;16.47;;;13.60;50.30;;;;;;10313914;28;20299;-81
2022/03/24 09:45:33;;;;;;;24.03;15.53;;;13.80;49.30;;;;;;10307511;28;20487;-81
2022/03/24 09:50:35;;;;;;;23.87;14.83;;;13.80;53.00;;;;;;10302413;28;20228;-81
2022/03/24 09:55:38;;;;;;;32.43;19.63;;;14.20;53.30;;;;;;10309827;28;20233;-81
2022/03/24 10:00:42;;;;;;;27.23;16.20;;;14.00;46.30;;;;;;10294082;28;20198;-94
2022/03/24 10:05:57;;;;;;;24.23;15.43;;;14.80;52.80;;;;;;10279287;28;20735;-94
2022/03/24 10:11:08;;;;;;;23.00;15.73;;;15.10;50.40;;;;;;10279990;28;20267;-95
2022/03/24 10:16:13;;;;;;;28.97;19.23;;;15.20;49.20;;;;;;10293916;28;20229;-95
2022/03/24 10:21:22;;;;;;;29.40;18.83;;;14.70;45.30;;;;;;10299981;23;20236;-80
2022/03/24 10:26:43;;;;;;;34.17;20.40;;;14.80;47.10;;;;;;10270972;28;20624;-80
2022/03/24 10:31:56;;;;;;;44.47;18.80;;;14.50;48.70;;;;;;10285284;28;20229;-82
2022/03/24 10:37:19;;;;;;;30.70;17.93;;;15.30;44.70;;;;;;10251504;28;20307;-81
2022/03/24 10:42:26;;;;;;;31.10;16.33;;;14.80;46.10;;;;;;10267385;28;20622;-81
2022/03/24 10:47:52;;;;;;;23.17;14.13;;;15.50;46.80;;;;;;10284790;28;20233;-82
2022/03/24 10:53:01;;;;;;;28.97;14.10;;;15.90;46.70;;;;;;10283436;28;20760;-81
2022/03/24 10:58:06;;;;;;;24.33;14.97;;;15.70;46.70;;;;;;10267865;28;20265;-81
2022/03/24 11:03:09;;;;;;;19.57;12.80;;;15.80;45.30;;;;;;10267318;28;20256;-81
2022/03/24 11:08:19;;;;;;;16.33;12.40;;;15.60;47.00;;;;;;10267435;28;20237;-81
2022/03/24 11:13:30;;;;;;;23.20;12.90;;;16.20;47.80;;;;;;10267540;28;20288;-81
2022/03/24 11:18:32;;;;;;;20.80;11.87;;;16.20;47.80;;;;;;10267246;28;20296;-81
2022/03/24 11:23:39;;;;;;;19.17;12.70;;;16.30;48.20;;;;;;10296830;28;20264;-82
2022/03/24 11:28:45;;;;;;;17.77;12.30;;;16.00;43.30;;;;;;10268659;28;20296;-81
2022/03/24 11:33:50;;;;;;;13.97;10.63;;;16.40;46.90;;;;;;10285181;28;20221;-81
2022/03/24 11:38:55;;;;;;;16.23;10.27;;;16.30;48.30;;;;;;10285041;28;20257;-82
2022/03/24 11:44:18;;;;;;;16.13;10.73;;;16.00;46.00;;;;;;10266001;28;20718;-82
2022/03/24 11:49:23;;;;;;;13.00;9.60;;;16.30;45.70;;;;;;10215017;23;20309;-81
2022/03/24 11:54:28;;;;;;;13.53;9.97;;;17.00;47.00;;;;;;10332005;28;20283;-81
2022/03/24 11:59:31;;;;;;;21.87;12.30;;;16.10;49.50;;;;;;9983720;28;10000165;-81
2022/03/24 12:04:48;;;;;;;14.13;10.57;;;15.50;39.10;;;;;;10309565;28;20229;-81
2022/03/24 12:10:04;;;;;;;25.20;12.63;;;16.00;45.60;;;;;;10310222;28;20240;-80
2022/03/24 12:15:15;;;;;;;15.33;11.40;;;16.20;42.80;;;;;;10322334;28;20263;-79
2022/03/24 12:20:22;;;;;;;15.30;9.53;;;16.50;45.30;;;;;;10308822;28;20253;-80
2022/03/24 12:25:26;;;;;;;21.80;13.47;;;16.60;48.70;;;;;;10327771;28;20322;-79
2022/03/24 12:30:51;;;;;;;11.60;8.73;;;16.60;40.80;;;;;;10328344;28;20295;-80
2022/03/24 12:35:56;;;;;;;13.33;8.60;;;17.50;48.70;;;;;;10327804;28;20241;-80
2022/03/24 12:41:07;;;;;;;21.30;12.90;;;17.20;48.90;;;;;;10340796;28;20750;-80
2022/03/24 12:46:21;;;;;;;15.13;10.53;;;17.10;39.30;;;;;;10329681;28;20225;-80
2022/03/24 12:51:27;;;;;;;19.13;11.57;;;16.10;44.90;;;;;;10331033;28;20792;-81
2022/03/24 12:56:32;;;;;;;10.37;7.97;;;15.30;39.40;;;;;;10339076;28;20262;-81
2022/03/24 13:01:35;;;;;;;19.17;8.50;;;15.10;44.80;;;;;;10327866;28;20263;-80
2022/03/24 13:06:38;;;;;;;11.17;8.27;;;15.20;40.00;;;;;;10345676;28;20265;-80
2022/03/24 13:12:12;;;;;;;13.97;8.87;;;15.40;42.80;;;;;;10322678;28;20232;-81
2022/03/24 13:17:16;;;;;;;17.10;10.67;;;15.00;42.40;;;;;;10306357;28;20788;-81
2022/03/24 13:22:25;;;;;;;19.10;10.03;;;15.50;39.50;;;;;;10322808;28;20419;-81
2022/03/24 13:27:33;;;;;;;17.17;10.03;;;15.60;48.30;;;;;;10345773;28;20530;-80
2022/03/24 13:32:37;;;;;;;9.60;7.50;;;16.20;43.10;;;;;;10327654;28;20256;-81
2022/03/24 13:37:42;;;;;;;8.57;7.33;;;16.40;50.80;;;;;;10329067;28;20256;-81
2022/03/24 13:42:45;;;;;;;19.17;10.87;;;17.10;49.90;;;;;;10328883;28;20228;-81
2022/03/24 13:47:56;;;;;;;21.50;11.83;;;16.60;43.20;;;;;;10325407;28;20225;-81
2022/03/24 13:52:59;;;;;;;13.80;8.93;;;16.50;38.20;;;;;;10289059;28;20214;-79
2022/03/24 13:58:17;;;;;;;16.63;11.00;;;16.70;47.20;;;;;;10288265;28;20253;-80
2022/03/24 14:03:21;;;;;;;15.13;8.93;;;16.20;41.00;;;;;;10287388;28;20252;-80
2022/03/24 14:08:26;;;;;;;14.93;8.37;;;15.80;41.90;;;;;;10270415;28;20269;-81
2022/03/24 14:13:41;;;;;;;18.33;8.50;;;15.20;40.20;;;;;;10285717;28;20233;-80
2022/03/24 14:19:02;;;;;;;23.57;9.47;;;15.60;41.30;;;;;;10285692;28;20264;-81
2022/03/24 14:24:05;;;;;;;11.03;7.00;;;15.70;44.70;;;;;;10286199;28;20225;-80
2022/03/24 14:29:26;;;;;;;11.83;8.53;;;15.50;51.10;;;;;;10287242;28;20287;-80
2022/03/24 14:34:29;;;;;;;9.00;7.13;;;15.80;49.90;;;;;;10286229;28;20268;-83
2022/03/24 14:39:31;;;;;;;11.37;8.00;;;16.30;47.50;;;;;;10287062;28;20249;-82
2022/03/24 14:44:34;;;;;;;13.23;7.93;;;16.70;48.70;;;;;;10287221;28;20213;-81
2022/03/24 14:49:36;;;;;;;11.17;7.97;;;16.00;38.60;;;;;;10300240;28;20266;-81
2022/03/24 14:54:39;;;;;;;14.20;7.60;;;15.50;46.10;;;;;;10327897;28;20773;-81
2022/03/24 14:59:41;;;;;;;12.87;7.13;;;16.20;36.80;;;;;;10328173;28;20794;-81
2022/03/24 15:04:44;;;;;;;13.37;6.17;;;15.80;39.40;;;;;;10327931;28;20236;-81
2022/03/24 15:09:47;;;;;;;10.60;7.53;;;16.20;37.70;;;;;;10310862;28;20232;-81
2022/03/24 15:20:10;;;;;;;17.33;7.50;;;15.70;35.90;;;;;;10312042;28;20299;-83
2022/03/24 15:25:13;;;;;;;11.40;6.77;;;15.30;36.80;;;;;;10331590;28;20673;-83
2022/03/24 15:30:15;;;;;;;10.43;6.10;;;15.50;38.20;;;;;;10314931;28;20232;-84
2022/03/24 15:35:18;;;;;;;8.37;5.20;;;15.70;36.20;;;;;;10317326;28;20315;-83
2022/03/24 15:40:21;;;;;;;10.17;6.30;;;16.30;37.70;;;;;;10333604;28;20253;-83
2022/03/24 15:45:24;;;;;;;15.50;6.80;;;16.80;36.10;;;;;;10332412;28;20197;-82
2022/03/24 15:50:26;;;;;;;11.63;5.57;;;16.80;37.90;;;;;;10361625;23;20229;-90
2022/03/24 15:55:30;;;;;;;10.73;5.93;;;17.30;38.30;;;;;;10329294;28;20233;-87
2022/03/24 16:00:33;;;;;;;9.00;5.47;;;17.60;36.50;;;;;;10332629;28;20316;-89
2022/03/24 16:05:36;;;;;;;9.80;6.90;;;17.50;39.10;;;;;;10313416;28;20233;-89
2022/03/24 16:10:38;;;;;;;7.07;5.23;;;16.40;34.30;;;;;;10332961;28;20205;-88
2022/03/24 16:15:41;;;;;;;33.67;16.03;;;17.20;41.60;;;;;;10286114;28;20232;-88
2022/03/24 16:20:43;;;;;;;19.83;6.37;;;16.80;41.90;;;;;;10332441;28;20240;-89
2022/03/24 16:25:50;;;;;;;12.13;5.63;;;16.80;43.00;;;;;;10314000;28;20233;-89
2022/03/24 16:30:53;;;;;;;14.23;5.23;;;16.40;43.90;;;;;;10331065;28;20283;-89
2022/03/24 16:35:57;;;;;;;20.93;7.40;;;16.60;44.60;;;;;;10298756;28;20279;-89
2022/03/24 16:41:00;;;;;;;15.13;6.93;;;15.60;39.00;;;;;;10299306;28;20228;-89
2022/03/24 16:46:02;;;;;;;11.67;6.43;;;15.10;42.00;;;;;;10314671;28;20201;-90
2022/03/24 16:51:05;;;;;;;13.10;6.57;;;14.50;42.50;;;;;;10316174;28;20228;-89
2022/03/24 16:56:07;;;;;;;7.10;5.07;;;13.70;44.80;;;;;;10300337;28;20208;-90
2022/03/24 17:01:10;;;;;;;8.47;5.33;;;14.40;48.60;;;;;;10332725;28;20648;-91
2022/03/24 17:06:13;;;;;;;9.00;4.73;;;14.50;50.30;;;;;;10317151;28;20193;-89
2022/03/24 17:11:15;;;;;;;8.43;4.53;;;14.50;49.90;;;;;;10299498;28;20227;-90
2022/03/24 17:16:18;;;;;;;7.73;4.43;;;14.60;50.20;;;;;;10316520;28;20205;-89
2022/03/24 17:21:21;;;;;;;4.70;3.73;;;14.80;50.80;;;;;;9609947;28;10000254;-89
2022/03/24 17:26:23;;;;;;;4.50;4.03;;;15.00;50.70;;;;;;10313552;28;20695;-90
2022/03/24 17:31:26;;;;;;;5.63;3.43;;;15.20;50.60;;;;;;10315257;28;20228;-89
2022/03/24 17:36:33;;;;;;;4.37;3.13;;;15.50;50.20;;;;;;10313358;28;20212;-89
2022/03/24 17:41:36;;;;;;;5.37;3.67;;;15.70;50.20;;;;;;10325395;28;20289;-89
2022/03/24 17:46:39;;;;;;;5.83;4.00;;;15.90;50.00;;;;;;10374908;28;20193;-89
2022/03/24 17:51:42;;;;;;;12.97;4.60;;;15.80;49.50;;;;;;10358817;28;20240;-89
2022/03/24 17:56:45;;;;;;;5.00;3.50;;;15.40;50.10;;;;;;10344738;28;20231;-89
2022/03/24 18:01:49;;;;;;;7.17;3.73;;;15.40;51.20;;;;;;10346392;28;20209;-89
2022/03/24 18:06:52;;;;;;;7.20;3.87;;;15.50;51.00;;;;;;10361332;28;20186;-89
2022/03/24 18:11:56;;;;;;;9.77;4.33;;;15.50;50.40;;;;;;10344988;28;20201;-89
2022/03/24 18:16:58;;;;;;;4.53;3.60;;;15.50;50.70;;;;;;10377325;28;20227;-89
2022/03/24 18:22:01;;;;;;;5.70;3.90;;;;;;;;;;10361603;28;20228;-88
2022/03/24 18:27:05;;;;;;;8.47;4.80;;;15.60;79.00;;;;;;10379226;28;20197;-89
2022/03/24 18:32:08;;;;;;;4.33;3.40;;;;;;;;;;10361198;28;20883;-89
2022/03/24 18:37:11;;;;;;;5.97;3.70;;;15.40;86.70;;;;;;10320804;28;20181;-88
2022/03/24 18:42:13;;;;;;;9.77;4.13;;;15.50;51.70;;;;;;10333716;28;20205;-89
2022/03/24 18:47:16;;;;;;;18.17;6.37;;;15.50;51.40;;;;;;10361754;28;20216;-89
2022/03/24 18:52:19;;;;;;;5.00;3.60;;;15.20;51.60;;;;;;10319934;28;20248;-89
2022/03/24 18:57:22;;;;;;;9.00;4.93;;;15.40;52.10;;;;;;10308015;28;20689;-89
2022/03/24 19:02:24;;;;;;;12.70;4.37;;;15.40;51.90;;;;;;10337506;28;20255;-88
2022/03/24 19:07:27;;;;;;;7.53;4.03;;;15.20;52.00;;;;;;10337210;28;20205;-88
2022/03/24 19:12:30;;;;;;;9.93;4.53;;;15.30;52.40;;;;;;10318425;28;20205;-89
2022/03/24 19:17:34;;;;;;;6.63;4.10;;;15.30;52.50;;;;;;10301826;28;20231;-88
2022/03/24 19:22:37;;;;;;;6.43;3.83;;;15.50;52.40;;;;;;10332361;28;20244;-88
2022/03/24 19:27:41;;;;;;;7.17;4.03;;;15.70;51.80;;;;;;10317229;28;20197;-88
2022/03/24 19:32:43;;;;;;;5.73;4.30;;;15.50;52.10;;;;;;10314812;28;20236;-88
2022/03/24 19:37:47;;;;;;;8.67;4.30;;;15.80;51.60;;;;;;10313974;28;20232;-90
2022/03/24 19:42:51;;;;;;;8.17;4.37;;;15.70;51.70;;;;;;10315700;28;20197;-89
2022/03/24 19:47:58;;;;;;;8.43;4.93;;;15.70;52.00;;;;;;10313252;28;20252;-89
2022/03/24 19:53:01;;;;;;;7.40;5.17;;;15.60;52.00;;;;;;10310878;28;20244;-87
2022/03/24 19:58:04;;;;;;;10.70;5.37;;;15.40;52.10;;;;;;10313389;28;20549;-90
2022/03/24 20:03:08;;;;;;;7.90;5.37;;;15.60;52.30;;;;;;10312857;28;20205;-89
2022/03/24 20:08:11;;;;;;;9.73;5.83;;;15.40;52.60;;;;;;10335042;28;20205;-88
2022/03/24 20:13:13;;;;;;;7.03;4.87;;;13.80;55.10;;;;;;10317669;28;20232;-89
2022/03/24 20:18:16;;;;;;;9.90;4.97;;;15.40;53.70;;;;;;10299301;28;20252;-88
2022/03/24 20:23:18;;;;;;;10.83;5.77;;;15.70;52.80;;;;;;10333821;28;20559;-88
2022/03/24 20:28:22;;;;;;;8.67;5.43;;;15.90;52.50;;;;;;10334325;28;20316;-88
2022/03/24 20:33:26;;;;;;;10.37;5.67;;;16.00;52.30;;;;;;10305923;28;20232;-88
2022/03/24 20:38:28;;;;;;;11.90;5.80;;;16.00;52.10;;;;;;10315755;28;20255;-87
2022/03/24 20:43:32;;;;;;;29.77;12.63;;;16.00;52.10;;;;;;10313740;28;21612;-88
2022/03/24 20:48:34;;;;;;;11.70;6.40;;;15.90;51.60;;;;;;10313336;28;20287;-88
2022/03/24 20:53:37;;;;;;;10.27;6.23;;;15.80;52.40;;;;;;10330867;28;20256;-87
2022/03/24 20:58:39;;;;;;;11.63;6.90;;;15.80;52.30;;;;;;10297358;28;20245;-88
2022/03/24 21:03:42;;;;;;;11.60;6.13;;;16.00;52.00;;;;;;10293342;28;20257;-88
2022/03/24 21:08:45;;;;;;;9.33;6.10;;;16.20;51.40;;;;;;10302778;28;20216;-89
2022/03/24 21:13:47;;;;;;;12.13;6.83;;;16.30;51.30;;;;;;10311461;28;20278;-89
2022/03/24 21:18:50;;;;;;;10.60;6.40;;;16.50;50.90;;;;;;10294327;28;20315;-89
2022/03/24 21:23:53;;;;;;;13.93;7.53;;;16.40;51.00;;;;;;10330271;28;20240;-89
2022/03/24 21:28:55;;;;;;;15.10;8.73;;;16.30;51.00;;;;;;10312410;28;20694;-88
2022/03/24 21:33:58;;;;;;;15.53;7.77;;;16.20;51.40;;;;;;10312133;28;20291;-89
2022/03/24 21:39:04;;;;;;;13.77;7.67;;;16.00;51.70;;;;;;10315527;28;20205;-89
2022/03/24 21:44:08;;;;;;;11.90;7.67;;;15.90;52.00;;;;;;9952627;28;9999761;-88
2022/03/24 21:49:11;;;;;;;12.83;7.97;;;16.10;51.70;;;;;;10328928;28;20256;-89
2022/03/24 21:54:13;;;;;;;21.30;9.57;;;16.20;51.30;;;;;;10327362;28;20320;-89
2022/03/24 21:59:16;;;;;;;13.77;8.80;;;16.00;51.80;;;;;;10318146;28;20256;-89
2022/03/24 22:04:19;;;;;;;13.10;8.70;;;16.20;51.60;;;;;;10315957;28;20240;-90
2022/03/24 22:09:21;;;;;;;16.10;9.50;;;16.20;51.40;;;;;;10327780;28;20244;-89
2022/03/24 22:14:24;;;;;;;15.63;9.70;;;16.10;51.50;;;;;;10310848;28;20240;-89
2022/03/24 22:19:27;;;;;;;18.17;10.07;;;16.10;51.60;;;;;;10308305;28;20256;-88
2022/03/24 22:24:30;;;;;;;17.83;10.03;;;15.90;51.90;;;;;;10327268;28;20807;-88
2022/03/24 22:29:32;;;;;;;18.43;11.33;;;16.00;51.90;;;;;;10293242;28;20209;-88
2022/03/24 22:34:35;;;;;;;15.80;9.77;;;15.90;51.90;;;;;;10287425;28;20264;-89
2022/03/24 22:39:38;;;;;;;18.33;10.70;;;16.00;51.80;;;;;;10293650;28;20783;-89
2022/03/24 22:44:40;;;;;;;19.43;11.57;;;16.00;51.70;;;;;;10308980;28;20248;-89
2022/03/24 22:49:43;;;;;;;23.57;11.43;;;16.10;51.60;;;;;;10303526;28;20291;-89
2022/03/24 22:54:45;;;;;;;23.33;12.87;;;16.20;51.30;;;;;;10293037;28;20264;-88
2022/03/24 22:59:48;;;;;;;25.80;12.90;;;16.10;51.20;;;;;;10292574;28;20307;-89
2022/03/24 23:04:51;;;;;;;24.10;12.70;;;15.90;51.50;;;;;;10309070;28;20709;-88
2022/03/24 23:09:53;;;;;;;21.30;12.53;;;15.60;52.40;;;;;;10295706;28;20243;-87
2022/03/24 23:14:56;;;;;;;23.30;13.83;;;15.50;52.50;;;;;;10305529;28;20243;-88
2022/03/24 23:19:59;;;;;;;26.10;13.80;;;15.70;52.20;;;;;;10309500;28;20252;-87
2022/03/24 23:25:02;;;;;;;24.43;14.97;;;15.70;52.20;;;;;;10309628;28;20283;-88
2022/03/24 23:30:05;;;;;;;25.97;14.63;;;15.50;52.20;;;;;;10308215;28;20213;-88
2022/03/24 23:35:09;;;;;;;31.47;15.07;;;15.00;53.60;;;;;;10293386;28;20219;-88
2022/03/24 23:40:12;;;;;;;26.07;15.73;;;15.30;53.20;;;;;;10327514;28;20653;-88
2022/03/24 23:45:15;;;;;;;23.23;14.30;;;15.60;52.70;;;;;;10316317;28;20656;-89
2022/03/24 23:50:18;;;;;;;28.17;15.83;;;15.70;52.40;;;;;;10300287;28;20701;-89
2022/03/24 23:55:21;;;;;;;24.80;14.97;;;15.70;52.30;;;;;;10333542;28;20264;-88
